Time;durP1;ratioP1;P1;durP2;ratioP2;P2;SDS_P1;SDS_P2;PMS_P1;PMS_P2;Temp;Humidity;BMP_temperature;BMP_pressure;BME280_temperature;BME280_humidity;BME280_pressure;Samples;Min_cycle;Max_cycle;Signal;HPM_P1;HPM_P2
2023/03/13 00:00:58;;;;;;;;;3.00;2.00;;;;;13.58;75.89;100413.13;6277607;22;45995;-74
2023/03/13 00:03:24;;;;;;;;;2.00;2.00;;;;;13.59;76.58;100411.34;6277540;22;44601;-74
2023/03/13 00:05:53;;;;;;;;;3.33;3.00;;;;;13.59;77.35;100421.97;6277547;22;44578;-75
2023/03/13 00:08:19;;;;;;;;;4.00;3.00;;;;;13.69;76.75;100433.53;6278283;22;45309;-75
2023/03/13 00:10:44;;;;;;;;;5.67;5.67;;;;;13.69;77.27;100426.44;6274305;22;58216;-75
2023/03/13 00:13:09;;;;;;;;;4.00;3.33;;;;;13.58;75.88;100398.94;6276834;22;47542;-74
2023/03/13 00:15:35;;;;;;;;;3.33;3.33;;;;;13.65;76.70;100412.25;6277443;22;46172;-74
2023/03/13 00:18:00;;;;;;;;;3.67;2.67;;;;;13.76;76.31;100430.91;6277290;22;45180;-75
2023/03/13 00:20:26;;;;;;;;;1.00;1.00;;;;;13.74;75.70;100418.50;6277574;22;45187;-75
2023/03/13 00:22:51;;;;;;;;;2.33;2.33;;;;;13.64;78.17;100404.31;6275072;22;45150;-74
2023/03/13 00:25:16;;;;;;;;;4.00;4.00;;;;;13.63;76.14;100387.44;6277602;22;45176;-75
2023/03/13 00:27:42;;;;;;;;;3.33;3.33;;;;;13.74;76.42;100391.94;6277304;22;45417;-75
2023/03/13 00:30:08;;;;;;;;;4.00;2.00;;;;;13.68;75.94;100384.84;6275138;22;45509;-75
2023/03/13 00:32:39;;;;;;;;;3.67;2.00;;;;;13.77;75.65;100386.63;6275221;22;45252;-74
2023/03/13 00:35:04;;;;;;;;;3.00;3.00;;;;;13.74;75.85;100382.19;6279455;22;45371;-75
2023/03/13 00:37:30;;;;;;;;;1.00;1.00;;;;;13.83;76.62;100397.28;6278780;22;45299;-75
2023/03/13 00:39:56;;;;;;;;;3.67;2.33;;;;;13.81;76.47;100399.06;6275358;22;47180;-75
2023/03/13 00:42:21;;;;;;;;;2.00;2.00;;;;;13.86;75.65;100399.97;6276737;22;47848;-74
2023/03/13 00:44:46;;;;;;;;;2.00;2.00;;;;;13.76;76.07;100385.75;6277367;22;45195;-74
2023/03/13 00:47:12;;;;;;;;;3.00;2.00;;;;;13.76;75.80;100385.75;6277551;22;56113;-74
2023/03/13 00:49:37;;;;;;;;;3.33;3.33;;;;;13.72;76.14;100367.13;6277001;22;53435;-74
2023/03/13 00:52:02;;;;;;;;;2.67;1.00;;;;;13.81;75.65;100384.00;6277286;22;45176;-75
2023/03/13 00:54:28;;;;;;;;;3.00;3.00;;;;;13.74;76.00;100379.53;6277237;22;45175;-74
2023/03/13 00:56:53;;;;;;;;;2.00;2.00;;;;;13.74;75.70;100365.38;6277166;22;45194;-75
2023/03/13 00:59:18;;;;;;;;;3.00;3.00;;;;;13.87;76.19;100386.69;6276099;22;52239;-75
2023/03/13 01:01:44;;;;;;;;;2.00;2.00;;;;;13.76;75.34;100374.25;6277084;22;45224;-74
2023/03/13 01:04:10;;;;;;;;;2.00;2.00;;;;;13.76;75.77;100364.50;6276892;22;45287;-75
2023/03/13 01:06:39;;;;;;;;;2.00;2.00;;;;;13.81;75.82;100365.41;6277411;22;45273;-75
2023/03/13 01:09:05;;;;;;;;;3.00;3.00;;;;;13.83;75.74;100363.63;6300331;22;46733;-74
2023/03/13 01:11:33;;;;;;;;;3.33;3.33;;;;;13.83;75.59;100347.69;6277348;22;45261;-75
2023/03/13 01:14:02;;;;;;;;;2.00;2.00;;;;;13.88;75.83;100367.19;6276924;22;45226;-75
2023/03/13 01:16:29;;;;;;;;;2.00;2.00;;;;;13.88;75.06;100361.88;6277050;22;45142;-75
2023/03/13 01:18:58;;;;;;;;;5.00;4.00;;;;;13.90;75.40;100350.41;6276781;22;46326;-74
2023/03/13 01:21:24;;;;;;;;;5.00;4.00;;;;;13.90;75.32;100348.63;6277313;22;45287;-75
2023/03/13 01:23:51;;;;;;;;;4.33;3.33;;;;;13.88;74.67;100343.28;6277211;22;45232;-75
2023/03/13 01:26:17;;;;;;;;;7.67;5.00;;;;;13.91;75.04;100341.53;6277448;22;45646;-75
2023/03/13 01:28:43;;;;;;;;;3.00;3.00;;;;;13.91;74.74;100330.91;6276973;22;45255;-75
2023/03/13 01:31:18;;;;;;;;;4.00;3.33;;;;;13.88;74.46;100315.84;6277726;22;45480;-75
2023/03/13 01:33:44;;;;;;;;;7.00;2.33;;;;;13.88;75.00;100316.72;6276798;22;45295;-75
2023/03/13 01:36:12;;;;;;;;;5.00;4.00;;;;;13.93;74.05;100323.84;6277114;22;45269;-75
2023/03/13 01:38:38;;;;;;;;;4.00;4.00;;;;;13.92;74.56;100330.94;6276823;22;46634;-74
2023/03/13 01:41:04;;;;;;;;;4.00;4.00;;;;;13.89;74.11;100341.50;6277103;22;45192;-75
2023/03/13 01:43:33;;;;;;;;;6.00;6.00;;;;;13.87;74.37;100333.56;6274769;22;45140;-75
2023/03/13 01:46:06;;;;;;;;;4.00;3.00;;;;;13.89;74.25;100330.88;6277283;22;45338;-75
2023/03/13 01:48:49;;;;;;;;;6.00;4.00;;;;;13.91;74.15;100334.44;6276413;22;46058;-75
2023/03/13 01:51:27;;;;;;;;;3.00;3.00;;;;;13.93;74.07;100329.16;6276939;22;45113;-75
2023/03/13 01:54:22;;;;;;;;;6.00;4.67;;;;;13.92;74.35;100314.06;6276935;22;45387;-75
2023/03/13 01:56:54;;;;;;;;;3.33;3.33;;;;;13.91;74.22;100299.91;6268254;22;45233;-75
2023/03/13 01:59:31;;;;;;;;;6.00;4.00;;;;;13.86;73.75;100299.00;6275517;22;46062;-74
2023/03/13 02:02:01;;;;;;;;;5.00;3.33;;;;;13.88;73.72;100310.53;6277134;22;45180;-75
2023/03/13 02:04:33;;;;;;;;;6.00;5.00;;;;;13.86;73.80;100309.63;6275787;22;45295;-74
2023/03/13 02:07:02;;;;;;;;;6.00;4.67;;;;;13.78;73.71;100285.72;6276702;22;45315;-75
2023/03/13 02:09:31;;;;;;;;;3.00;2.00;;;;;13.83;73.84;100289.25;6248807;22;46220;-75
2023/03/13 02:11:57;;;;;;;;;5.00;5.00;;;;;13.88;73.58;100295.47;6276550;22;45543;-75
2023/03/13 02:14:26;;;;;;;;;6.00;6.00;;;;;13.91;73.06;100291.94;6274990;22;45407;-75
2023/03/13 02:16:54;;;;;;;;;10.67;6.00;;;;;13.86;73.33;100299.00;6280789;22;45198;-75
2023/03/13 02:19:34;;;;;;;;;7.33;6.33;;;;;13.91;73.47;100281.31;6282007;22;45493;-74
2023/03/13 02:22:26;;;;;;;;;5.33;4.33;;;;;13.91;73.89;100296.38;6276800;22;45282;-74
2023/03/13 02:25:22;;;;;;;;;4.33;3.00;;;;;13.91;73.26;100286.63;6276637;22;45164;-74
2023/03/13 02:27:51;;;;;;;;;6.00;5.00;;;;;13.83;73.55;100270.66;6276505;22;45451;-75
2023/03/13 02:30:17;;;;;;;;;6.00;5.00;;;;;13.80;73.07;100252.06;6277045;22;45188;-74
2023/03/13 02:32:44;;;;;;;;;5.00;4.00;;;;;13.85;74.14;100260.03;6277102;22;45412;-75
2023/03/13 02:35:13;;;;;;;;;4.00;4.00;;;;;13.77;73.37;100248.50;6278060;22;45404;-75
2023/03/13 02:37:42;;;;;;;;;7.67;3.33;;;;;13.74;73.49;100240.53;6277594;22;45424;-74
2023/03/13 02:40:12;;;;;;;;;4.67;3.67;;;;;13.85;73.46;100266.22;6277313;22;46047;-75
2023/03/13 02:42:40;;;;;;;;;5.33;5.33;;;;;13.82;73.47;100266.22;6277805;22;45382;-74
2023/03/13 02:45:07;;;;;;;;;3.67;3.67;;;;;13.79;73.47;100260.03;6277853;22;45239;-74
2023/03/13 02:47:32;;;;;;;;;6.33;5.33;;;;;13.76;73.36;100260.91;6277818;22;45251;-74
2023/03/13 02:49:58;;;;;;;;;5.33;4.00;;;;;13.79;73.08;100258.25;6277890;22;46054;-75
2023/03/13 02:52:27;;;;;;;;;3.33;3.33;;;;;13.73;73.09;100231.69;6277836;22;48930;-74
2023/03/13 02:55:01;;;;;;;;;6.00;5.00;;;;;13.86;73.17;100249.44;6277965;22;45241;-75
2023/03/13 02:57:26;;;;;;;;;7.00;6.00;;;;;13.85;72.96;100247.63;6277852;22;45228;-75
2023/03/13 02:59:52;;;;;;;;;7.00;5.00;;;;;13.85;72.97;100239.66;6277444;22;45434;-74
2023/03/13 03:02:18;;;;;;;;;4.00;4.00;;;;;13.86;72.87;100236.16;6277911;22;45233;-75
2023/03/13 03:04:43;;;;;;;;;6.33;3.67;;;;;13.77;72.79;100220.16;6277667;22;45354;-74
2023/03/13 03:07:09;;;;;;;;;4.33;2.67;;;;;13.81;73.09;100229.94;6278196;22;45263;-75
2023/03/13 03:09:34;;;;;;;;;6.00;4.00;;;;;13.84;72.86;100226.41;6277642;22;45510;-74
2023/03/13 03:11:59;;;;;;;;;8.00;3.00;;;;;13.87;72.60;100223.75;6277922;22;45239;-75
2023/03/13 03:14:25;;;;;;;;;4.00;2.33;;;;;13.88;73.14;100234.34;6277579;22;45275;-74
2023/03/13 03:16:50;;;;;;;;;6.00;6.00;;;;;13.91;72.58;100232.59;6278071;22;45260;-75
2023/03/13 03:19:15;;;;;;;;;6.00;4.67;;;;;13.88;72.67;100222.84;6277544;22;50190;-74
2023/03/13 03:21:41;;;;;;;;;6.00;5.67;;;;;13.86;73.08;100225.53;6301571;22;45743;-75
2023/03/13 03:24:06;;;;;;;;;5.67;3.67;;;;;13.90;73.00;100233.50;6277293;22;45228;-75
2023/03/13 03:26:32;;;;;;;;;6.67;5.67;;;;;13.94;72.48;100229.94;6277559;22;45181;-75
2023/03/13 03:28:57;;;;;;;;;5.33;4.33;;;;;13.91;72.55;100225.50;6277417;22;46311;-75
2023/03/13 03:31:22;;;;;;;;;5.00;4.67;;;;;13.86;72.52;100217.56;6275077;22;45233;-75
2023/03/13 03:33:48;;;;;;;;;5.00;3.00;;;;;13.92;72.61;100223.72;6278129;22;45271;-75
2023/03/13 03:36:16;;;;;;;;;5.00;5.00;;;;;13.95;72.64;100224.66;6301832;22;46079;-74
2023/03/13 03:38:42;;;;;;;;;7.67;4.00;;;;;13.90;72.41;100215.78;6278105;22;45215;-75
2023/03/13 03:41:09;;;;;;;;;5.00;5.00;;;;;13.99;72.52;100231.72;6276796;22;44759;-74
2023/03/13 03:43:35;;;;;;;;;7.33;4.00;;;;;14.00;72.60;100232.59;6277538;22;45580;-75
2023/03/13 03:46:00;;;;;;;;;6.33;4.33;;;;;14.00;72.05;100222.88;6277467;22;45251;-75
2023/03/13 03:48:26;;;;;;;;;5.00;3.67;;;;;14.02;72.14;100234.38;6277255;22;45873;-74
2023/03/13 03:50:52;;;;;;;;;7.00;6.00;;;;;13.96;72.09;100222.88;6277896;22;45303;-75
2023/03/13 03:53:17;;;;;;;;;4.67;4.00;;;;;14.03;71.88;100232.59;6277469;22;45224;-75
2023/03/13 03:55:43;;;;;;;;;6.00;4.67;;;;;13.83;71.76;100204.22;6277619;22;45339;-74
2023/03/13 03:58:09;;;;;;;;;4.67;4.33;;;;;14.03;72.03;100214.91;6276956;22;45235;-75
2023/03/13 04:00:34;;;;;;;;;3.33;2.67;;;;;14.04;71.91;100222.00;6277964;22;45138;-74
2023/03/13 04:03:00;;;;;;;;;5.33;4.00;;;;;14.04;71.64;100227.31;6278376;22;45386;-74
2023/03/13 04:05:25;;;;;;;;;8.33;5.00;;;;;14.01;71.92;100222.00;6278396;22;45359;-74
2023/03/13 04:07:50;;;;;;;;;4.00;4.00;;;;;13.92;71.29;100216.69;6275633;22;46239;-74
2023/03/13 04:10:16;;;;;;;;;4.00;4.00;;;;;14.04;71.60;100223.75;6277020;22;51419;-74
2023/03/13 04:12:41;;;;;;;;;4.67;4.00;;;;;14.05;71.57;100225.53;6276031;22;45253;-74
2023/03/13 04:15:08;;;;;;;;;5.67;4.00;;;;;14.04;71.98;100226.41;6277889;22;45429;-74
2023/03/13 04:17:33;;;;;;;;;9.00;5.33;;;;;14.06;71.95;100227.31;6275644;22;47830;-75
2023/03/13 04:19:59;;;;;;;;;3.00;3.00;;;;;13.94;71.93;100188.31;6277944;22;45238;-75
2023/03/13 04:22:25;;;;;;;;;8.00;4.00;;;;;14.02;71.90;100207.81;6277889;22;45229;-75
2023/03/13 04:24:50;;;;;;;;;5.67;5.67;;;;;14.02;72.61;100212.25;6277166;22;45271;-75
2023/03/13 04:27:16;;;;;;;;;5.00;4.00;;;;;13.99;72.03;100205.16;6277591;22;46127;-75
2023/03/13 04:29:41;;;;;;;;;7.67;4.33;;;;;14.00;71.73;100219.31;6277816;22;45267;-75
2023/03/13 04:32:06;;;;;;;;;7.67;3.67;;;;;13.98;71.64;100214.03;6278154;22;45398;-75
2023/03/13 04:34:32;;;;;;;;;6.67;5.67;;;;;14.05;72.07;100225.53;6277750;22;45302;-75
2023/03/13 04:36:57;;;;;;;;;6.33;5.00;;;;;14.02;71.92;100212.25;6275563;22;47139;-75
2023/03/13 04:39:24;;;;;;;;;5.00;5.00;;;;;14.03;71.84;100222.88;6277390;22;45267;-75
2023/03/13 04:41:54;;;;;;;;;7.00;4.00;;;;;14.03;71.71;100214.00;6275747;22;45191;-74
2023/03/13 04:44:20;;;;;;;;;7.33;6.33;;;;;13.93;71.84;100197.19;6277030;22;45429;-75
2023/03/13 04:46:47;;;;;;;;;5.00;5.00;;;;;14.05;71.92;100215.78;6275654;22;46484;-75
2023/03/13 04:49:13;;;;;;;;;5.00;5.00;;;;;14.02;71.78;100206.94;6277270;22;45351;-75
2023/03/13 04:51:39;;;;;;;;;5.33;4.00;;;;;14.00;71.71;100221.97;6277462;22;45193;-75
2023/03/13 04:54:05;;;;;;;;;4.33;4.33;;;;;14.02;71.73;100222.88;6277121;22;45150;-75
2023/03/13 04:56:30;;;;;;;;;7.33;5.00;;;;;13.97;71.62;100211.34;6277268;22;45173;-75
2023/03/13 04:58:55;;;;;;;;;5.00;4.00;;;;;14.02;71.95;100209.59;6277386;22;45205;-75
2023/03/13 05:01:21;;;;;;;;;5.67;5.00;;;;;14.01;71.54;100205.16;6277694;22;45209;-75
2023/03/13 05:03:46;;;;;;;;;6.33;5.00;;;;;14.04;71.90;100224.66;6277951;22;45216;-74
2023/03/13 05:06:11;;;;;;;;;5.00;5.00;;;;;13.99;72.06;100209.59;6277982;22;45150;-75
2023/03/13 05:08:37;;;;;;;;;7.00;5.67;;;;;13.97;71.92;100188.31;6277530;22;45184;-75
2023/03/13 05:11:03;;;;;;;;;7.00;5.00;;;;;14.01;71.82;100206.03;6277138;22;45161;-75
2023/03/13 05:13:29;;;;;;;;;8.33;5.67;;;;;14.01;72.34;100194.53;6277174;22;45273;-74
2023/03/13 05:15:54;;;;;;;;;8.67;5.67;;;;;13.99;72.49;100190.97;6277444;22;46094;-75
2023/03/13 05:18:19;;;;;;;;;9.00;5.00;;;;;13.93;72.83;100190.97;6275303;22;45289;-74
2023/03/13 05:20:45;;;;;;;;;10.00;7.00;;;;;13.95;72.28;100191.84;6277755;22;45275;-74
2023/03/13 05:23:10;;;;;;;;;7.00;4.00;;;;;13.95;72.42;100186.53;6277579;22;45500;-74
2023/03/13 05:25:35;;;;;;;;;10.33;8.67;;;;;13.92;72.31;100194.50;6277398;22;45359;-74
2023/03/13 05:28:01;;;;;;;;;7.00;7.00;;;;;13.90;72.48;100204.28;6275887;22;45165;-74
2023/03/13 05:30:26;;;;;;;;;8.00;8.00;;;;;13.90;72.19;100198.97;6277713;22;45167;-74
2023/03/13 05:32:51;;;;;;;;;7.33;7.33;;;;;13.82;72.28;100197.16;6276581;22;45263;-74
2023/03/13 05:35:17;;;;;;;;;8.33;7.33;;;;;13.87;72.25;100202.50;6277572;22;45744;-74
2023/03/13 05:37:44;;;;;;;;;5.00;5.00;;;;;13.87;72.16;100202.50;6277514;22;45274;-74
2023/03/13 05:40:10;;;;;;;;;8.67;8.33;;;;;13.83;72.47;100198.03;6277504;22;45280;-74
2023/03/13 05:42:35;;;;;;;;;10.00;5.00;;;;;13.84;72.56;100195.41;6276520;22;47321;-73
2023/03/13 05:45:01;;;;;;;;;7.00;7.00;;;;;13.78;72.36;100178.53;6277471;22;45530;-74
2023/03/13 05:47:26;;;;;;;;;8.67;6.00;;;;;13.86;72.44;100187.41;6277852;22;45168;-74
2023/03/13 05:49:51;;;;;;;;;8.00;7.00;;;;;13.83;72.00;100180.31;6301108;22;45124;-74
2023/03/13 05:52:17;;;;;;;;;5.00;5.00;;;;;13.83;72.74;100177.66;6277360;22;45261;-74
2023/03/13 05:54:42;;;;;;;;;8.33;7.33;;;;;13.85;72.96;100189.19;6276094;22;57088;-74
2023/03/13 05:57:07;;;;;;;;;8.00;6.67;;;;;13.82;72.50;100177.69;6277484;22;45149;-74
2023/03/13 05:59:33;;;;;;;;;11.00;6.00;;;;;13.72;72.57;100154.63;6276337;22;45185;-74
2023/03/13 06:01:58;;;;;;;;;8.33;7.67;;;;;13.83;72.67;100168.81;6277326;22;45401;-74
2023/03/13 06:04:23;;;;;;;;;6.67;6.67;;;;;13.82;72.47;100170.59;6277640;22;45462;-74
2023/03/13 06:06:49;;;;;;;;;6.67;6.33;;;;;13.81;72.57;100163.53;6278441;22;45276;-74
2023/03/13 06:09:14;;;;;;;;;7.00;4.00;;;;;13.74;72.36;100176.78;6278221;22;45288;-74
2023/03/13 06:11:40;;;;;;;;;5.67;4.00;;;;;13.65;72.82;100144.03;6278572;22;45185;-75
2023/03/13 06:14:06;;;;;;;;;6.33;4.00;;;;;13.77;72.84;100161.72;6277484;22;45323;-73
2023/03/13 06:16:31;;;;;;;;;7.00;7.00;;;;;13.72;72.67;100168.81;6278132;22;45321;-74
2023/03/13 06:18:57;;;;;;;;;6.33;5.00;;;;;13.75;72.87;100155.56;6278402;22;45274;-74
2023/03/13 06:21:22;;;;;;;;;6.00;6.00;;;;;13.75;73.32;100163.53;6278585;22;45275;-75
2023/03/13 06:23:47;;;;;;;;;5.00;5.00;;;;;13.59;73.02;100122.78;6278549;22;45334;-75
2023/03/13 06:26:13;;;;;;;;;10.33;6.00;;;;;13.76;73.05;100157.31;6277634;22;44719;-75
2023/03/13 06:28:38;;;;;;;;;5.33;5.33;;;;;13.64;73.12;100122.78;6279489;22;45297;-75
2023/03/13 06:31:05;;;;;;;;;6.67;5.33;;;;;13.74;73.30;100143.13;6278369;22;56315;-75
2023/03/13 06:33:30;;;;;;;;;6.67;6.00;;;;;13.73;72.84;100143.16;6278266;22;45332;-75
2023/03/13 06:35:56;;;;;;;;;8.67;6.00;;;;;13.71;73.25;100126.31;6276618;22;45228;-75
2023/03/13 06:38:22;;;;;;;;;5.67;5.00;;;;;13.74;73.35;100119.22;6278715;22;45223;-75
2023/03/13 06:40:47;;;;;;;;;6.00;6.00;;;;;13.68;73.29;100115.69;6278450;22;45445;-75
2023/03/13 06:43:13;;;;;;;;;7.67;6.00;;;;;13.68;73.52;100110.38;6278132;22;48916;-75
2023/03/13 06:45:38;;;;;;;;;6.00;6.00;;;;;13.74;72.88;100113.91;6278015;22;53029;-75
2023/03/13 06:48:04;;;;;;;;;11.33;8.00;;;;;13.78;73.16;100125.41;6279302;22;45219;-75
2023/03/13 06:50:29;;;;;;;;;5.33;5.33;;;;;13.73;74.06;100116.59;6276741;22;45558;-74
2023/03/13 06:52:56;;;;;;;;;6.33;6.00;;;;;13.67;72.89;100096.22;6276037;22;45463;-75
2023/03/13 06:55:22;;;;;;;;;8.67;8.00;;;;;13.77;73.54;100116.56;6279074;22;45278;-75
2023/03/13 06:57:51;;;;;;;;;7.67;5.67;;;;;13.75;72.81;100112.16;6278252;22;45239;-75
2023/03/13 07:00:18;;;;;;;;;8.67;4.67;;;;;13.83;73.03;100124.53;6278027;22;45475;-75
2023/03/13 07:02:44;;;;;;;;;6.67;6.33;;;;;13.73;73.37;100106.84;6277837;22;46066;-73
2023/03/13 07:05:09;;;;;;;;;9.00;5.67;;;;;13.85;72.90;100122.78;6279287;22;45350;-74
2023/03/13 07:07:34;;;;;;;;;9.00;6.00;;;;;13.84;73.21;100114.81;6281181;22;45329;-74
2023/03/13 07:10:00;;;;;;;;;6.67;6.33;;;;;13.85;72.94;100101.53;6280577;22;46218;-75
2023/03/13 07:12:25;;;;;;;;;6.67;6.33;;;;;13.90;73.25;100106.84;6282397;22;45981;-74
2023/03/13 07:14:51;;;;;;;;;4.33;4.33;;;;;13.92;73.11;100099.78;6281263;22;56235;-73
2023/03/13 07:17:16;;;;;;;;;6.00;5.00;;;;;13.94;73.24;100099.75;6279255;22;45238;-75
2023/03/13 07:19:41;;;;;;;;;6.67;5.00;;;;;13.90;72.58;100098.00;6279372;22;45230;-75
2023/03/13 07:22:06;;;;;;;;;6.67;4.00;;;;;13.80;72.73;100082.03;6278315;22;50935;-74
2023/03/13 07:24:32;;;;;;;;;3.00;3.00;;;;;13.90;72.85;100092.69;6278280;22;45282;-76
2023/03/13 07:26:57;;;;;;;;;7.00;6.00;;;;;14.00;72.88;100095.34;6302726;22;45675;-75
2023/03/13 07:29:23;;;;;;;;;6.00;6.00;;;;;14.00;72.56;100089.09;6277483;22;45256;-76
2023/03/13 07:31:48;;;;;;;;;4.00;4.00;;;;;14.07;72.68;100082.91;6278423;22;45251;-74
2023/03/13 07:34:13;;;;;;;;;6.00;5.00;;;;;14.08;72.74;100087.34;6277976;22;45265;-76
2023/03/13 07:36:40;;;;;;;;;6.00;5.67;;;;;14.02;72.59;100074.06;6278272;22;46194;-75
2023/03/13 07:39:06;;;;;;;;;4.67;4.67;;;;;14.11;72.43;100079.34;6277661;22;45277;-75
2023/03/13 07:41:31;;;;;;;;;3.00;2.33;;;;;14.04;72.18;100065.19;6278106;22;45256;-75
2023/03/13 07:43:56;;;;;;;;;5.33;5.33;;;;;14.14;72.27;100075.81;6278264;22;45238;-75
2023/03/13 07:46:22;;;;;;;;;8.67;6.00;;;;;14.07;72.37;100059.00;6278731;22;45231;-75
2023/03/13 07:48:47;;;;;;;;;6.67;6.00;;;;;14.13;73.11;100068.72;6280478;22;45154;-75
2023/03/13 07:51:17;;;;;;;;;4.00;4.00;;;;;14.14;72.90;100071.38;6280415;22;45145;-75
2023/03/13 07:53:49;;;;;;;;;4.33;3.00;;;;;14.15;72.96;100065.19;6276831;22;45212;-75
2023/03/13 07:56:20;;;;;;;;;4.67;4.67;;;;;14.04;73.05;100051.03;6278057;22;45122;-75
2023/03/13 07:58:45;;;;;;;;;9.00;5.33;;;;;14.15;73.78;100066.97;6277291;22;45404;-75
2023/03/13 08:01:14;;;;;;;;;4.67;4.67;;;;;14.17;72.86;100068.72;6278011;22;45537;-75
2023/03/13 08:03:40;;;;;;;;;4.00;4.00;;;;;14.20;72.71;100065.16;6277312;22;45299;-75
2023/03/13 08:06:10;;;;;;;;;5.67;5.00;;;;;14.20;72.89;100068.72;6278168;22;45323;-75
2023/03/13 08:08:37;;;;;;;;;6.00;6.00;;;;;14.21;73.56;100069.59;6277610;22;45181;-75
2023/03/13 08:11:03;;;;;;;;;6.00;5.00;;;;;14.12;73.06;100056.34;6273403;22;46177;-75
2023/03/13 08:13:31;;;;;;;;;5.67;5.00;;;;;14.20;72.98;100054.53;6273509;22;45546;-76
2023/03/13 08:16:20;;;;;;;;;6.00;5.33;;;;;14.18;73.54;100057.19;6277086;22;45320;-77
2023/03/13 08:18:49;;;;;;;;;6.33;6.00;;;;;14.12;74.33;100051.91;6276838;22;45496;-77
2023/03/13 08:21:20;;;;;;;;;5.33;5.00;;;;;14.18;73.76;100043.91;6277095;22;47995;-76
2023/03/13 08:23:46;;;;;;;;;5.00;5.00;;;;;14.25;73.38;100042.09;6275097;22;45301;-75
2023/03/13 08:26:18;;;;;;;;;8.33;6.67;;;;;14.26;73.59;100042.13;6276832;22;45204;-74
2023/03/13 08:28:45;;;;;;;;;5.00;5.00;;;;;14.29;72.96;100049.19;6276870;22;45287;-76
2023/03/13 08:31:15;;;;;;;;;6.33;5.00;;;;;14.31;73.38;100043.00;6277620;22;45388;-75
2023/03/13 08:33:42;;;;;;;;;6.00;4.67;;;;;14.31;72.62;100042.09;6278672;22;45288;-75
2023/03/13 08:36:19;;;;;;;;;7.00;5.00;;;;;14.35;73.22;100050.97;6279972;22;45283;-73
2023/03/13 08:38:46;;;;;;;;;4.33;4.33;;;;;14.33;72.97;100046.50;6281779;22;45472;-75
2023/03/13 08:41:13;;;;;;;;;7.33;6.00;;;;;14.37;72.76;100041.19;6281567;22;45166;-75
2023/03/13 08:43:38;;;;;;;;;5.00;3.67;;;;;14.42;72.60;100034.06;6277445;22;45228;-74
2023/03/13 08:46:04;;;;;;;;;6.33;6.00;;;;;14.40;72.75;100022.59;6275756;22;49257;-74
2023/03/13 08:48:29;;;;;;;;;4.67;4.00;;;;;14.39;72.21;100013.69;6277253;22;45702;-74
2023/03/13 08:51:02;;;;;;;;;4.33;4.00;;;;;14.49;72.39;100023.41;6277231;22;45234;-77
2023/03/13 08:53:28;;;;;;;;;3.33;3.00;;;;;14.52;72.32;100027.88;6277249;22;45170;-76
2023/03/13 08:55:54;;;;;;;;;6.67;5.33;;;;;14.55;72.17;100023.41;6277311;22;45200;-77
2023/03/13 08:58:19;;;;;;;;;5.00;4.00;;;;;14.53;72.70;100011.03;6276466;22;45252;-76
2023/03/13 09:00:44;;;;;;;;;5.00;5.00;;;;;14.66;72.55;100012.75;6275015;22;47200;-76
2023/03/13 09:03:10;;;;;;;;;5.00;5.00;;;;;14.77;71.78;100000.25;6274696;22;45333;-75
2023/03/13 09:05:39;;;;;;;;;4.00;4.00;;;;;14.89;71.95;100009.94;6277767;22;45655;-77
2023/03/13 09:08:04;;;;;;;;;6.00;5.00;;;;;14.89;71.65;99982.44;6277392;22;45405;-76
2023/03/13 09:10:32;;;;;;;;;4.00;4.00;;;;;15.09;71.33;99999.16;6276709;22;46102;-76
2023/03/13 09:12:57;;;;;;;;;3.00;3.00;;;;;15.16;71.47;100008.88;6277610;22;45527;-76
2023/03/13 09:15:22;;;;;;;;;7.67;5.67;;;;;15.20;71.31;99985.78;6276668;22;45251;-75
2023/03/13 09:17:48;;;;;;;;;4.00;3.33;;;;;15.21;70.46;99971.59;6279285;22;45253;-77
2023/03/13 09:20:13;;;;;;;;;4.67;3.67;;;;;15.20;71.35;99976.00;6279957;22;46850;-74
2023/03/13 09:22:38;;;;;;;;;3.00;3.00;;;;;15.19;70.88;99957.41;6280984;22;45169;-74
2023/03/13 09:25:04;;;;;;;;;4.33;4.00;;;;;15.31;71.14;99961.72;6278941;22;47566;-74
2023/03/13 09:27:29;;;;;;;;;4.00;4.00;;;;;15.32;71.10;99971.47;6277074;22;45342;-74
2023/03/13 09:29:54;;;;;;;;;4.33;4.00;;;;;15.31;71.33;99980.38;6275293;22;45931;-75
2023/03/13 09:32:20;;;;;;;;;3.00;3.00;;;;;15.17;71.55;99959.19;6277304;22;45318;-76
2023/03/13 09:34:46;;;;;;;;;4.67;4.67;;;;;15.16;72.22;99965.41;6277452;22;45474;-75
2023/03/13 09:37:11;;;;;;;;;4.67;4.00;;;;;15.18;72.35;99975.16;6276910;22;45322;-76
2023/03/13 09:39:37;;;;;;;;;5.00;5.00;;;;;14.98;72.65;99954.03;6276271;22;46234;-76
2023/03/13 09:42:02;;;;;;;;;5.67;5.00;;;;;15.07;73.02;99966.38;6277224;22;45445;-77
2023/03/13 09:44:35;;;;;;;;;7.33;6.00;;;;;15.00;73.59;99960.19;6273458;22;45275;-76
2023/03/13 09:47:12;;;;;;;;;5.67;3.67;;;;;14.96;73.13;99954.91;6276285;22;45632;-76
2023/03/13 09:49:38;;;;;;;;;6.00;4.33;;;;;14.93;73.83;99960.28;6275634;22;46372;-75
2023/03/13 09:52:12;;;;;;;;;9.00;8.00;;;;;14.88;73.47;99962.06;6275745;22;45263;-74
2023/03/13 09:54:57;;;;;;;;;5.00;5.00;;;;;14.84;73.83;99947.00;6275645;22;45311;-75
2023/03/13 09:57:27;;;;;;;;;6.33;5.33;;;;;14.82;72.47;99933.72;6275560;22;45287;-75
2023/03/13 09:59:59;;;;;;;;;7.00;5.00;;;;;14.76;72.90;99942.63;6274487;22;46559;-75
2023/03/13 10:02:33;;;;;;;;;4.67;4.00;;;;;14.65;72.52;99915.22;6278419;22;45175;-74
2023/03/13 10:05:22;;;;;;;;;4.33;3.00;;;;;14.67;73.36;99924.06;6280712;22;45304;-75
2023/03/13 10:07:49;;;;;;;;;5.67;5.00;;;;;14.71;72.96;99927.59;6278410;22;47197;-74
2023/03/13 10:10:40;;;;;;;;;5.67;5.67;;;;;14.68;72.97;99923.19;6276523;22;46316;-74
2023/03/13 10:13:39;;;;;;;;;2.00;2.00;;;;;14.63;72.54;99902.81;6225611;22;45370;-75
2023/03/13 10:16:10;;;;;;;;;3.00;3.00;;;;;14.76;72.61;99913.38;6250082;22;45304;-75
2023/03/13 10:18:37;;;;;;;;;8.33;8.33;;;;;14.80;72.60;99905.38;6275071;22;45600;-74
2023/03/13 10:21:16;;;;;;;;;3.33;3.33;;;;;14.88;72.29;99912.41;6276159;22;45249;-74
2023/03/13 10:23:59;;;;;;;;;6.00;3.67;;;;;14.87;72.03;99888.44;6275585;22;45291;-75
2023/03/13 10:26:31;;;;;;;;;3.00;3.00;;;;;14.95;71.57;99892.81;6276277;22;45628;-75
2023/03/13 10:29:18;;;;;;;;;4.33;3.00;;;;;15.00;71.55;99892.78;6275113;22;45237;-75
2023/03/13 10:31:55;;;;;;;;;3.00;3.00;;;;;15.10;71.32;99902.47;6272684;22;45663;-75
2023/03/13 10:34:23;;;;;;;;;2.67;2.33;;;;;15.15;70.70;99889.09;6273698;22;45218;-75
2023/03/13 10:36:55;;;;;;;;;3.33;2.67;;;;;15.15;70.12;99891.75;6276610;22;45250;-75
2023/03/13 10:39:22;;;;;;;;;4.67;3.67;;;;;15.18;70.85;99879.31;6275477;22;45321;-74
2023/03/13 10:41:49;;;;;;;;;2.00;2.00;;;;;15.26;70.28;99881.00;6276015;22;45195;-74
2023/03/13 10:44:17;;;;;;;;;3.00;3.00;;;;;15.43;70.03;99869.31;6276154;22;45551;-75
2023/03/13 10:46:46;;;;;;;;;2.00;2.00;;;;;15.88;69.21;99876.84;6277312;22;45176;-75
2023/03/13 10:49:19;;;;;;;;;5.67;4.00;;;;;16.20;68.38;99851.53;6277066;22;45562;-75
2023/03/13 10:51:56;;;;;;;;;3.00;3.00;;;;;16.70;68.30;99831.22;6278178;22;45224;-75
2023/03/13 10:54:27;;;;;;;;;3.67;3.00;;;;;16.99;66.26;99818.28;6277020;22;45303;-74
2023/03/13 10:57:28;;;;;;;;;2.00;2.00;;;;;17.39;65.71;99830.94;6277268;22;45318;-73
2023/03/13 10:59:54;;;;;;;;;3.00;3.00;;;;;17.71;64.34;99856.13;6265992;22;45131;-73
2023/03/13 11:02:29;;;;;;;;;2.00;2.00;;;;;17.82;62.57;99855.94;6277684;22;45293;-76
2023/03/13 11:04:55;;;;;;;;;2.00;0.00;;;;;17.91;63.95;99841.50;6277528;22;45280;-75
2023/03/13 11:07:34;;;;;;;;;3.00;2.00;;;;;18.08;62.67;99837.53;6275838;22;45162;-76
2023/03/13 11:10:01;;;;;;;;;2.00;2.00;;;;;18.16;61.45;99840.06;6276719;22;45360;-76
2023/03/13 11:12:27;;;;;;;;;2.33;2.33;;;;;18.29;62.33;99854.94;6277633;22;45876;-76
2023/03/13 11:14:57;;;;;;;;;3.00;2.67;;;;;18.27;60.22;99835.34;6277498;22;45298;-76
2023/03/13 11:17:35;;;;;;;;;4.00;3.00;;;;;18.13;60.68;99826.75;6277013;22;45282;-76
2023/03/13 11:20:25;;;;;;;;;2.67;1.67;;;;;18.18;60.82;99845.38;6277946;22;45364;-75
2023/03/13 11:23:15;;;;;;;;;2.67;2.67;;;;;18.16;60.26;99836.50;6277438;22;45262;-76
2023/03/13 11:26:05;;;;;;;;;4.00;2.00;;;;;18.29;60.14;99838.00;6278142;22;45278;-75
2023/03/13 11:29:12;;;;;;;;;3.33;1.67;;;;;18.32;60.53;99856.66;6278404;22;45200;-76
2023/03/13 11:31:53;;;;;;;;;2.67;2.67;;;;;18.16;59.14;99842.72;6280918;22;45145;-76